sensor_id;sensor_type;location;lat;lon;timestamp;P1;durP1;ratioP1;P2;durP2;ratioP2
76850;SDS011;65824;43.726;20.692;2023-02-04T00:01:33;11.20;;;4.85;;
76850;SDS011;65824;43.726;20.692;2023-02-04T00:03:59;9.20;;;4.57;;
76850;SDS011;65824;43.726;20.692;2023-02-04T00:06:26;10.75;;;4.80;;
76850;SDS011;65824;43.726;20.692;2023-02-04T00:08:52;8.38;;;4.40;;
76850;SDS011;65824;43.726;20.692;2023-02-04T00:11:19;8.02;;;4.15;;
76850;SDS011;65824;43.726;20.692;2023-02-04T00:13:45;7.57;;;3.45;;
76850;SDS011;65824;43.726;20.692;2023-02-04T00:16:12;8.35;;;4.07;;
76850;SDS011;65824;43.726;20.692;2023-02-04T00:18:38;8.85;;;4.00;;
76850;SDS011;65824;43.726;20.692;2023-02-04T00:21:03;8.18;;;3.70;;
76850;SDS011;65824;43.726;20.692;2023-02-04T00:23:29;7.07;;;3.33;;
76850;SDS011;65824;43.726;20.692;2023-02-04T00:25:54;9.57;;;3.70;;
76850;SDS011;65824;43.726;20.692;2023-02-04T00:28:21;7.03;;;3.47;;
76850;SDS011;65824;43.726;20.692;2023-02-04T00:30:46;10.38;;;4.55;;
76850;SDS011;65824;43.726;20.692;2023-02-04T00:33:12;11.75;;;5.60;;
76850;SDS011;65824;43.726;20.692;2023-02-04T00:35:41;14.00;;;6.22;;
76850;SDS011;65824;43.726;20.692;2023-02-04T00:38:07;12.55;;;5.53;;
76850;SDS011;65824;43.726;20.692;2023-02-04T00:40:32;11.02;;;5.68;;
76850;SDS011;65824;43.726;20.692;2023-02-04T00:42:58;10.32;;;4.93;;
76850;SDS011;65824;43.726;20.692;2023-02-04T00:45:23;8.45;;;4.40;;
76850;SDS011;65824;43.726;20.692;2023-02-04T00:47:49;7.20;;;3.95;;
76850;SDS011;65824;43.726;20.692;2023-02-04T00:50:15;10.18;;;4.55;;
76850;SDS011;65824;43.726;20.692;2023-02-04T00:52:41;9.73;;;4.22;;
76850;SDS011;65824;43.726;20.692;2023-02-04T00:55:09;9.02;;;4.32;;
76850;SDS011;65824;43.726;20.692;2023-02-04T00:57:36;9.18;;;4.50;;
76850;SDS011;65824;43.726;20.692;2023-02-04T01:00:03;8.75;;;4.32;;
76850;SDS011;65824;43.726;20.692;2023-02-04T01:02:29;11.00;;;5.18;;
76850;SDS011;65824;43.726;20.692;2023-02-04T01:04:59;9.45;;;4.82;;
76850;SDS011;65824;43.726;20.692;2023-02-04T01:07:25;11.05;;;5.05;;
76850;SDS011;65824;43.726;20.692;2023-02-04T01:09:50;8.07;;;4.13;;
76850;SDS011;65824;43.726;20.692;2023-02-04T01:12:15;6.78;;;3.50;;
76850;SDS011;65824;43.726;20.692;2023-02-04T01:14:42;6.57;;;3.47;;
76850;SDS011;65824;43.726;20.692;2023-02-04T01:17:08;7.03;;;3.53;;
76850;SDS011;65824;43.726;20.692;2023-02-04T01:19:33;9.55;;;4.53;;
76850;SDS011;65824;43.726;20.692;2023-02-04T01:22:00;9.23;;;4.40;;
76850;SDS011;65824;43.726;20.692;2023-02-04T01:24:25;9.88;;;4.38;;
76850;SDS011;65824;43.726;20.692;2023-02-04T01:26:51;11.40;;;5.18;;
76850;SDS011;65824;43.726;20.692;2023-02-04T01:29:16;9.18;;;4.65;;
76850;SDS011;65824;43.726;20.692;2023-02-04T01:31:43;10.50;;;4.60;;
76850;SDS011;65824;43.726;20.692;2023-02-04T01:34:09;10.00;;;4.90;;
76850;SDS011;65824;43.726;20.692;2023-02-04T01:36:34;7.60;;;3.63;;
76850;SDS011;65824;43.726;20.692;2023-02-04T01:39:00;7.47;;;4.07;;
76850;SDS011;65824;43.726;20.692;2023-02-04T01:41:25;8.57;;;3.90;;
76850;SDS011;65824;43.726;20.692;2023-02-04T01:43:51;8.73;;;4.05;;
76850;SDS011;65824;43.726;20.692;2023-02-04T01:46:17;9.65;;;3.83;;
76850;SDS011;65824;43.726;20.692;2023-02-04T01:48:42;7.30;;;3.22;;
76850;SDS011;65824;43.726;20.692;2023-02-04T01:51:10;6.70;;;3.40;;
76850;SDS011;65824;43.726;20.692;2023-02-04T01:53:38;6.53;;;3.40;;
76850;SDS011;65824;43.726;20.692;2023-02-04T01:56:25;9.18;;;4.53;;
76850;SDS011;65824;43.726;20.692;2023-02-04T01:58:51;9.93;;;4.03;;
76850;SDS011;65824;43.726;20.692;2023-02-04T02:01:35;9.55;;;3.90;;
76850;SDS011;65824;43.726;20.692;2023-02-04T02:04:13;4.55;;;2.42;;
76850;SDS011;65824;43.726;20.692;2023-02-04T02:06:44;6.93;;;3.00;;
76850;SDS011;65824;43.726;20.692;2023-02-04T02:09:15;5.03;;;2.30;;
76850;SDS011;65824;43.726;20.692;2023-02-04T02:11:41;4.63;;;1.80;;
76850;SDS011;65824;43.726;20.692;2023-02-04T02:14:07;5.38;;;2.00;;
76850;SDS011;65824;43.726;20.692;2023-02-04T02:16:33;4.75;;;2.20;;
76850;SDS011;65824;43.726;20.692;2023-02-04T02:18:58;5.13;;;2.15;;
76850;SDS011;65824;43.726;20.692;2023-02-04T02:21:37;4.95;;;1.92;;
76850;SDS011;65824;43.726;20.692;2023-02-04T02:26:52;5.50;;;2.78;;
76850;SDS011;65824;43.726;20.692;2023-02-04T02:29:19;4.60;;;2.03;;
76850;SDS011;65824;43.726;20.692;2023-02-04T02:31:48;4.55;;;1.80;;
76850;SDS011;65824;43.726;20.692;2023-02-04T02:34:14;6.20;;;1.88;;
76850;SDS011;65824;43.726;20.692;2023-02-04T02:36:41;4.00;;;1.75;;
76850;SDS011;65824;43.726;20.692;2023-02-04T02:39:07;3.78;;;1.50;;
76850;SDS011;65824;43.726;20.692;2023-02-04T02:41:34;3.28;;;1.27;;
76850;SDS011;65824;43.726;20.692;2023-02-04T02:44:01;4.00;;;1.33;;
76850;SDS011;65824;43.726;20.692;2023-02-04T02:46:26;3.25;;;1.42;;
76850;SDS011;65824;43.726;20.692;2023-02-04T02:48:52;4.00;;;1.20;;
76850;SDS011;65824;43.726;20.692;2023-02-04T02:51:19;4.53;;;1.30;;
76850;SDS011;65824;43.726;20.692;2023-02-04T02:53:46;2.80;;;1.13;;
76850;SDS011;65824;43.726;20.692;2023-02-04T02:56:13;3.72;;;1.23;;
76850;SDS011;65824;43.726;20.692;2023-02-04T02:58:38;3.45;;;1.20;;
76850;SDS011;65824;43.726;20.692;2023-02-04T03:01:06;2.65;;;1.00;;
76850;SDS011;65824;43.726;20.692;2023-02-04T03:03:40;3.35;;;1.02;;
76850;SDS011;65824;43.726;20.692;2023-02-04T03:06:15;2.72;;;1.00;;
76850;SDS011;65824;43.726;20.692;2023-02-04T03:08:44;3.38;;;1.52;;
76850;SDS011;65824;43.726;20.692;2023-02-04T03:11:14;3.92;;;1.10;;
76850;SDS011;65824;43.726;20.692;2023-02-04T03:13:40;3.55;;;1.35;;
76850;SDS011;65824;43.726;20.692;2023-02-04T03:16:06;3.45;;;1.10;;
76850;SDS011;65824;43.726;20.692;2023-02-04T03:18:32;2.97;;;1.00;;
76850;SDS011;65824;43.726;20.692;2023-02-04T03:20:58;3.63;;;1.35;;
76850;SDS011;65824;43.726;20.692;2023-02-04T03:23:25;4.45;;;1.30;;
76850;SDS011;65824;43.726;20.692;2023-02-04T03:25:51;4.10;;;1.88;;
76850;SDS011;65824;43.726;20.692;2023-02-04T03:28:16;4.25;;;1.70;;
76850;SDS011;65824;43.726;20.692;2023-02-04T03:30:42;4.50;;;1.75;;
76850;SDS011;65824;43.726;20.692;2023-02-04T03:33:12;4.05;;;1.40;;
76850;SDS011;65824;43.726;20.692;2023-02-04T03:35:37;4.47;;;1.80;;
76850;SDS011;65824;43.726;20.692;2023-02-04T03:38:03;3.47;;;1.50;;
76850;SDS011;65824;43.726;20.692;2023-02-04T03:40:28;3.97;;;1.42;;
76850;SDS011;65824;43.726;20.692;2023-02-04T03:42:53;4.30;;;1.58;;
76850;SDS011;65824;43.726;20.692;2023-02-04T03:45:20;5.03;;;1.50;;
76850;SDS011;65824;43.726;20.692;2023-02-04T03:47:46;3.55;;;1.58;;
76850;SDS011;65824;43.726;20.692;2023-02-04T03:50:11;4.15;;;1.42;;
76850;SDS011;65824;43.726;20.692;2023-02-04T03:52:38;3.25;;;1.40;;
76850;SDS011;65824;43.726;20.692;2023-02-04T03:55:04;3.40;;;1.30;;
76850;SDS011;65824;43.726;20.692;2023-02-04T03:57:30;4.25;;;1.33;;
76850;SDS011;65824;43.726;20.692;2023-02-04T03:59:55;2.67;;;1.20;;
76850;SDS011;65824;43.726;20.692;2023-02-04T04:02:20;4.50;;;1.70;;
76850;SDS011;65824;43.726;20.692;2023-02-04T04:04:46;5.13;;;1.70;;
76850;SDS011;65824;43.726;20.692;2023-02-04T04:07:11;4.78;;;1.92;;
76850;SDS011;65824;43.726;20.692;2023-02-04T04:09:37;5.40;;;2.30;;
76850;SDS011;65824;43.726;20.692;2023-02-04T04:12:02;5.97;;;2.35;;
76850;SDS011;65824;43.726;20.692;2023-02-04T04:14:28;5.32;;;2.50;;
76850;SDS011;65824;43.726;20.692;2023-02-04T04:16:53;5.53;;;2.13;;
76850;SDS011;65824;43.726;20.692;2023-02-04T04:19:19;5.70;;;2.42;;
76850;SDS011;65824;43.726;20.692;2023-02-04T04:21:44;4.10;;;2.15;;
76850;SDS011;65824;43.726;20.692;2023-02-04T04:24:11;4.63;;;2.13;;
76850;SDS011;65824;43.726;20.692;2023-02-04T04:26:36;6.45;;;2.45;;
76850;SDS011;65824;43.726;20.692;2023-02-04T04:29:06;10.40;;;3.85;;
76850;SDS011;65824;43.726;20.692;2023-02-04T04:31:32;14.18;;;4.32;;
76850;SDS011;65824;43.726;20.692;2023-02-04T04:33:57;9.02;;;3.20;;
76850;SDS011;65824;43.726;20.692;2023-02-04T04:36:23;4.22;;;1.95;;
76850;SDS011;65824;43.726;20.692;2023-02-04T04:38:48;3.92;;;1.40;;
76850;SDS011;65824;43.726;20.692;2023-02-04T04:41:14;2.53;;;1.15;;
76850;SDS011;65824;43.726;20.692;2023-02-04T04:43:40;2.78;;;1.15;;
76850;SDS011;65824;43.726;20.692;2023-02-04T04:46:07;5.38;;;1.63;;
76850;SDS011;65824;43.726;20.692;2023-02-04T04:48:33;4.30;;;1.70;;
76850;SDS011;65824;43.726;20.692;2023-02-04T04:51:00;5.18;;;2.35;;
76850;SDS011;65824;43.726;20.692;2023-02-04T04:53:25;6.72;;;2.20;;
76850;SDS011;65824;43.726;20.692;2023-02-04T04:55:50;6.10;;;2.25;;
76850;SDS011;65824;43.726;20.692;2023-02-04T04:58:16;4.60;;;1.95;;
76850;SDS011;65824;43.726;20.692;2023-02-04T05:00:41;4.57;;;1.70;;
76850;SDS011;65824;43.726;20.692;2023-02-04T05:03:07;3.63;;;1.58;;
76850;SDS011;65824;43.726;20.692;2023-02-04T05:05:32;5.53;;;1.80;;
76850;SDS011;65824;43.726;20.692;2023-02-04T05:08:03;6.30;;;2.00;;
76850;SDS011;65824;43.726;20.692;2023-02-04T05:10:29;6.00;;;1.92;;
76850;SDS011;65824;43.726;20.692;2023-02-04T05:12:54;4.97;;;1.95;;
76850;SDS011;65824;43.726;20.692;2023-02-04T05:15:21;5.10;;;2.22;;
76850;SDS011;65824;43.726;20.692;2023-02-04T05:17:46;4.18;;;1.75;;
76850;SDS011;65824;43.726;20.692;2023-02-04T05:20:11;5.78;;;1.70;;
76850;SDS011;65824;43.726;20.692;2023-02-04T05:22:40;5.20;;;2.00;;
76850;SDS011;65824;43.726;20.692;2023-02-04T05:25:06;5.18;;;1.90;;
76850;SDS011;65824;43.726;20.692;2023-02-04T05:27:31;4.20;;;1.98;;
76850;SDS011;65824;43.726;20.692;2023-02-04T05:29:57;4.53;;;1.85;;
76850;SDS011;65824;43.726;20.692;2023-02-04T05:32:22;4.68;;;2.03;;
76850;SDS011;65824;43.726;20.692;2023-02-04T05:34:48;5.97;;;2.30;;
76850;SDS011;65824;43.726;20.692;2023-02-04T05:37:14;5.22;;;2.22;;
76850;SDS011;65824;43.726;20.692;2023-02-04T05:39:41;4.85;;;2.22;;
76850;SDS011;65824;43.726;20.692;2023-02-04T05:42:09;6.22;;;2.50;;
76850;SDS011;65824;43.726;20.692;2023-02-04T05:44:34;6.10;;;2.38;;
76850;SDS011;65824;43.726;20.692;2023-02-04T05:47:00;5.05;;;2.35;;
76850;SDS011;65824;43.726;20.692;2023-02-04T05:49:25;5.07;;;2.20;;
76850;SDS011;65824;43.726;20.692;2023-02-04T05:51:51;6.63;;;2.50;;
76850;SDS011;65824;43.726;20.692;2023-02-04T05:54:18;7.93;;;2.95;;
76850;SDS011;65824;43.726;20.692;2023-02-04T05:56:45;6.68;;;2.45;;
76850;SDS011;65824;43.726;20.692;2023-02-04T05:59:11;6.10;;;2.60;;
76850;SDS011;65824;43.726;20.692;2023-02-04T06:01:36;4.82;;;2.10;;
76850;SDS011;65824;43.726;20.692;2023-02-04T06:04:02;4.55;;;1.98;;
76850;SDS011;65824;43.726;20.692;2023-02-04T06:06:28;7.53;;;2.28;;
76850;SDS011;65824;43.726;20.692;2023-02-04T06:08:54;6.10;;;2.00;;
76850;SDS011;65824;43.726;20.692;2023-02-04T06:11:20;6.10;;;2.60;;
76850;SDS011;65824;43.726;20.692;2023-02-04T06:13:46;5.30;;;2.00;;
76850;SDS011;65824;43.726;20.692;2023-02-04T06:16:11;5.78;;;2.40;;
76850;SDS011;65824;43.726;20.692;2023-02-04T06:18:37;5.88;;;2.45;;
76850;SDS011;65824;43.726;20.692;2023-02-04T06:21:02;6.60;;;2.55;;
76850;SDS011;65824;43.726;20.692;2023-02-04T06:23:29;5.68;;;2.67;;
76850;SDS011;65824;43.726;20.692;2023-02-04T06:25:55;6.13;;;3.03;;
76850;SDS011;65824;43.726;20.692;2023-02-04T06:28:20;7.10;;;3.22;;
76850;SDS011;65824;43.726;20.692;2023-02-04T06:30:49;7.80;;;3.25;;
76850;SDS011;65824;43.726;20.692;2023-02-04T06:33:15;7.70;;;3.10;;
76850;SDS011;65824;43.726;20.692;2023-02-04T06:35:40;8.10;;;2.80;;
76850;SDS011;65824;43.726;20.692;2023-02-04T06:38:06;5.97;;;3.00;;
76850;SDS011;65824;43.726;20.692;2023-02-04T06:40:31;5.40;;;2.72;;
76850;SDS011;65824;43.726;20.692;2023-02-04T06:42:56;5.90;;;2.92;;
76850;SDS011;65824;43.726;20.692;2023-02-04T06:45:22;7.75;;;3.47;;
76850;SDS011;65824;43.726;20.692;2023-02-04T06:47:47;7.28;;;3.20;;
76850;SDS011;65824;43.726;20.692;2023-02-04T06:50:13;8.98;;;4.13;;
76850;SDS011;65824;43.726;20.692;2023-02-04T06:52:45;6.70;;;3.20;;
76850;SDS011;65824;43.726;20.692;2023-02-04T06:55:14;8.82;;;3.55;;
76850;SDS011;65824;43.726;20.692;2023-02-04T06:57:40;8.65;;;2.95;;
76850;SDS011;65824;43.726;20.692;2023-02-04T07:00:08;6.97;;;3.20;;
76850;SDS011;65824;43.726;20.692;2023-02-04T07:02:34;5.90;;;3.10;;
76850;SDS011;65824;43.726;20.692;2023-02-04T07:05:01;5.75;;;2.90;;
76850;SDS011;65824;43.726;20.692;2023-02-04T07:07:27;7.38;;;3.30;;
76850;SDS011;65824;43.726;20.692;2023-02-04T07:09:53;6.82;;;3.47;;
76850;SDS011;65824;43.726;20.692;2023-02-04T07:12:18;7.97;;;3.58;;
76850;SDS011;65824;43.726;20.692;2023-02-04T07:14:44;11.00;;;5.10;;
76850;SDS011;65824;43.726;20.692;2023-02-04T07:17:09;9.10;;;4.68;;
76850;SDS011;65824;43.726;20.692;2023-02-04T07:19:37;11.00;;;4.50;;
76850;SDS011;65824;43.726;20.692;2023-02-04T07:22:03;11.10;;;5.63;;
76850;SDS011;65824;43.726;20.692;2023-02-04T07:24:29;14.98;;;6.85;;
76850;SDS011;65824;43.726;20.692;2023-02-04T07:26:55;13.88;;;7.10;;
76850;SDS011;65824;43.726;20.692;2023-02-04T07:29:20;14.65;;;7.50;;
76850;SDS011;65824;43.726;20.692;2023-02-04T07:31:46;15.68;;;7.50;;
76850;SDS011;65824;43.726;20.692;2023-02-04T07:34:13;13.55;;;6.97;;
76850;SDS011;65824;43.726;20.692;2023-02-04T07:36:39;13.07;;;6.72;;
76850;SDS011;65824;43.726;20.692;2023-02-04T07:39:06;11.65;;;6.22;;
76850;SDS011;65824;43.726;20.692;2023-02-04T07:41:32;8.73;;;3.95;;
76850;SDS011;65824;43.726;20.692;2023-02-04T07:43:58;6.15;;;3.00;;
76850;SDS011;65824;43.726;20.692;2023-02-04T07:46:23;9.75;;;2.97;;
76850;SDS011;65824;43.726;20.692;2023-02-04T07:48:49;7.53;;;3.55;;
76850;SDS011;65824;43.726;20.692;2023-02-04T07:51:14;8.38;;;3.88;;
76850;SDS011;65824;43.726;20.692;2023-02-04T07:53:40;8.38;;;4.43;;
76850;SDS011;65824;43.726;20.692;2023-02-04T07:56:05;8.45;;;4.22;;
76850;SDS011;65824;43.726;20.692;2023-02-04T07:58:31;9.65;;;4.20;;
76850;SDS011;65824;43.726;20.692;2023-02-04T08:00:56;9.60;;;4.32;;
76850;SDS011;65824;43.726;20.692;2023-02-04T08:03:22;10.00;;;4.78;;
76850;SDS011;65824;43.726;20.692;2023-02-04T08:05:48;9.43;;;4.57;;
76850;SDS011;65824;43.726;20.692;2023-02-04T08:08:14;10.38;;;5.30;;
76850;SDS011;65824;43.726;20.692;2023-02-04T08:10:42;11.35;;;6.90;;
76850;SDS011;65824;43.726;20.692;2023-02-04T08:13:08;13.68;;;7.72;;
76850;SDS011;65824;43.726;20.692;2023-02-04T08:15:34;17.52;;;7.80;;
76850;SDS011;65824;43.726;20.692;2023-02-04T08:17:59;16.88;;;8.98;;
76850;SDS011;65824;43.726;20.692;2023-02-04T08:20:25;16.65;;;9.07;;
76850;SDS011;65824;43.726;20.692;2023-02-04T08:22:51;16.75;;;9.38;;
76850;SDS011;65824;43.726;20.692;2023-02-04T08:25:16;19.08;;;9.95;;
76850;SDS011;65824;43.726;20.692;2023-02-04T08:27:42;20.02;;;9.85;;
76850;SDS011;65824;43.726;20.692;2023-02-04T08:30:09;19.30;;;9.38;;
76850;SDS011;65824;43.726;20.692;2023-02-04T08:32:35;14.88;;;8.27;;
76850;SDS011;65824;43.726;20.692;2023-02-04T08:35:00;16.42;;;7.65;;
76850;SDS011;65824;43.726;20.692;2023-02-04T08:37:26;14.18;;;8.43;;
76850;SDS011;65824;43.726;20.692;2023-02-04T08:39:53;14.93;;;8.13;;
76850;SDS011;65824;43.726;20.692;2023-02-04T08:42:23;16.50;;;7.68;;
76850;SDS011;65824;43.726;20.692;2023-02-04T08:44:48;14.38;;;7.30;;
76850;SDS011;65824;43.726;20.692;2023-02-04T08:47:13;11.10;;;6.88;;
76850;SDS011;65824;43.726;20.692;2023-02-04T08:49:40;15.05;;;7.70;;
76850;SDS011;65824;43.726;20.692;2023-02-04T08:52:05;10.98;;;6.07;;
76850;SDS011;65824;43.726;20.692;2023-02-04T08:54:32;11.82;;;6.30;;
76850;SDS011;65824;43.726;20.692;2023-02-04T08:56:58;11.25;;;5.63;;
76850;SDS011;65824;43.726;20.692;2023-02-04T08:59:29;7.63;;;4.40;;
76850;SDS011;65824;43.726;20.692;2023-02-04T09:01:54;10.65;;;6.72;;
76850;SDS011;65824;43.726;20.692;2023-02-04T09:04:21;9.80;;;6.05;;
76850;SDS011;65824;43.726;20.692;2023-02-04T09:06:47;8.38;;;4.80;;
76850;SDS011;65824;43.726;20.692;2023-02-04T09:09:13;9.00;;;5.07;;
76850;SDS011;65824;43.726;20.692;2023-02-04T09:11:40;13.88;;;5.65;;
76850;SDS011;65824;43.726;20.692;2023-02-04T09:14:08;11.80;;;5.63;;
76850;SDS011;65824;43.726;20.692;2023-02-04T09:16:35;10.05;;;4.60;;
76850;SDS011;65824;43.726;20.692;2023-02-04T09:19:01;9.50;;;4.38;;
76850;SDS011;65824;43.726;20.692;2023-02-04T09:21:28;8.57;;;3.20;;
76850;SDS011;65824;43.726;20.692;2023-02-04T09:23:54;6.47;;;3.10;;
76850;SDS011;65824;43.726;20.692;2023-02-04T09:26:19;7.07;;;3.22;;
76850;SDS011;65824;43.726;20.692;2023-02-04T09:28:45;6.25;;;3.13;;
76850;SDS011;65824;43.726;20.692;2023-02-04T09:31:12;6.72;;;2.75;;
76850;SDS011;65824;43.726;20.692;2023-02-04T09:33:38;7.10;;;3.22;;
76850;SDS011;65824;43.726;20.692;2023-02-04T09:36:04;8.50;;;3.88;;
76850;SDS011;65824;43.726;20.692;2023-02-04T09:41:02;6.82;;;3.10;;
76850;SDS011;65824;43.726;20.692;2023-02-04T09:43:30;5.97;;;2.92;;
76850;SDS011;65824;43.726;20.692;2023-02-04T09:45:58;6.15;;;2.92;;
76850;SDS011;65824;43.726;20.692;2023-02-04T09:48:24;7.15;;;3.17;;
76850;SDS011;65824;43.726;20.692;2023-02-04T09:50:50;7.05;;;3.15;;
76850;SDS011;65824;43.726;20.692;2023-02-04T09:53:18;8.32;;;3.60;;
76850;SDS011;65824;43.726;20.692;2023-02-04T09:55:48;11.00;;;4.50;;
76850;SDS011;65824;43.726;20.692;2023-02-04T09:58:16;10.63;;;5.47;;
76850;SDS011;65824;43.726;20.692;2023-02-04T10:00:44;10.52;;;4.72;;
76850;SDS011;65824;43.726;20.692;2023-02-04T10:03:13;10.88;;;4.18;;
76850;SDS011;65824;43.726;20.692;2023-02-04T10:05:45;11.30;;;4.13;;
76850;SDS011;65824;43.726;20.692;2023-02-04T10:08:14;7.78;;;3.75;;
76850;SDS011;65824;43.726;20.692;2023-02-04T10:10:44;7.28;;;3.60;;
76850;SDS011;65824;43.726;20.692;2023-02-04T10:13:13;7.63;;;3.67;;
76850;SDS011;65824;43.726;20.692;2023-02-04T10:15:43;7.43;;;4.32;;
76850;SDS011;65824;43.726;20.692;2023-02-04T10:18:10;8.50;;;4.32;;
76850;SDS011;65824;43.726;20.692;2023-02-04T10:20:41;9.65;;;4.20;;
76850;SDS011;65824;43.726;20.692;2023-02-04T10:23:08;7.15;;;3.70;;
76850;SDS011;65824;43.726;20.692;2023-02-04T10:25:39;8.52;;;4.70;;
76850;SDS011;65824;43.726;20.692;2023-02-04T10:28:05;8.75;;;4.03;;
76850;SDS011;65824;43.726;20.692;2023-02-04T10:30:38;7.97;;;3.72;;
76850;SDS011;65824;43.726;20.692;2023-02-04T10:33:28;7.85;;;4.30;;
76850;SDS011;65824;43.726;20.692;2023-02-04T10:35:55;6.90;;;3.35;;
76850;SDS011;65824;43.726;20.692;2023-02-04T10:38:22;7.35;;;3.60;;
76850;SDS011;65824;43.726;20.692;2023-02-04T10:40:59;7.20;;;3.80;;
76850;SDS011;65824;43.726;20.692;2023-02-04T10:43:29;7.53;;;3.72;;
76850;SDS011;65824;43.726;20.692;2023-02-04T10:45:56;7.95;;;2.75;;
76850;SDS011;65824;43.726;20.692;2023-02-04T10:48:38;4.22;;;1.60;;
76850;SDS011;65824;43.726;20.692;2023-02-04T10:51:04;3.90;;;1.30;;
76850;SDS011;65824;43.726;20.692;2023-02-04T10:53:30;3.67;;;1.50;;
76850;SDS011;65824;43.726;20.692;2023-02-04T10:58:46;4.60;;;1.80;;
76850;SDS011;65824;43.726;20.692;2023-02-04T11:01:13;3.95;;;1.70;;
76850;SDS011;65824;43.726;20.692;2023-02-04T11:03:40;5.20;;;2.20;;
76850;SDS011;65824;43.726;20.692;2023-02-04T11:06:09;5.40;;;2.00;;
76850;SDS011;65824;43.726;20.692;2023-02-04T11:08:39;5.78;;;2.03;;
76850;SDS011;65824;43.726;20.692;2023-02-04T11:16:24;5.57;;;2.20;;
76850;SDS011;65824;43.726;20.692;2023-02-04T11:19:04;5.80;;;2.63;;
76850;SDS011;65824;43.726;20.692;2023-02-04T11:32:25;8.25;;;3.53;;
76850;SDS011;65824;43.726;20.692;2023-02-04T11:35:04;8.95;;;3.45;;
76850;SDS011;65824;43.726;20.692;2023-02-04T11:37:35;8.35;;;3.50;;
76850;SDS011;65824;43.726;20.692;2023-02-04T11:40:08;9.35;;;3.80;;
76850;SDS011;65824;43.726;20.692;2023-02-04T11:43:12;6.15;;;3.35;;
76850;SDS011;65824;43.726;20.692;2023-02-04T11:45:39;3.97;;;2.10;;
76850;SDS011;65824;43.726;20.692;2023-02-04T11:48:16;4.90;;;2.42;;
76850;SDS011;65824;43.726;20.692;2023-02-04T11:51:45;8.20;;;3.83;;
76850;SDS011;65824;43.726;20.692;2023-02-04T11:53:51;8.50;;;4.53;;
76850;SDS011;65824;43.726;20.692;2023-02-04T11:56:20;8.98;;;3.90;;
76850;SDS011;65824;43.726;20.692;2023-02-04T11:58:46;7.40;;;3.47;;
76850;SDS011;65824;43.726;20.692;2023-02-04T12:03:50;8.02;;;3.85;;
76850;SDS011;65824;43.726;20.692;2023-02-04T12:08:50;6.25;;;3.35;;
76850;SDS011;65824;43.726;20.692;2023-02-04T12:11:26;10.40;;;4.40;;
76850;SDS011;65824;43.726;20.692;2023-02-04T12:13:54;10.02;;;4.75;;
76850;SDS011;65824;43.726;20.692;2023-02-04T12:16:22;7.03;;;3.88;;
76850;SDS011;65824;43.726;20.692;2023-02-04T12:18:48;7.45;;;4.00;;
76850;SDS011;65824;43.726;20.692;2023-02-04T12:21:17;7.70;;;3.47;;
76850;SDS011;65824;43.726;20.692;2023-02-04T12:23:43;5.97;;;2.92;;
76850;SDS011;65824;43.726;20.692;2023-02-04T12:26:09;9.20;;;3.50;;
76850;SDS011;65824;43.726;20.692;2023-02-04T12:28:35;5.82;;;2.72;;
76850;SDS011;65824;43.726;20.692;2023-02-04T12:31:00;7.20;;;2.78;;
76850;SDS011;65824;43.726;20.692;2023-02-04T12:33:26;4.15;;;2.30;;
76850;SDS011;65824;43.726;20.692;2023-02-04T12:35:51;4.05;;;2.00;;
76850;SDS011;65824;43.726;20.692;2023-02-04T12:38:17;5.07;;;2.33;;
76850;SDS011;65824;43.726;20.692;2023-02-04T12:40:42;8.32;;;2.30;;
76850;SDS011;65824;43.726;20.692;2023-02-04T12:43:09;4.78;;;2.40;;
76850;SDS011;65824;43.726;20.692;2023-02-04T12:45:35;5.65;;;2.15;;
76850;SDS011;65824;43.726;20.692;2023-02-04T12:48:02;4.32;;;2.30;;
76850;SDS011;65824;43.726;20.692;2023-02-04T12:50:28;4.82;;;2.60;;
76850;SDS011;65824;43.726;20.692;2023-02-04T12:52:55;10.63;;;4.85;;
76850;SDS011;65824;43.726;20.692;2023-02-04T12:55:25;7.53;;;3.25;;
76850;SDS011;65824;43.726;20.692;2023-02-04T12:57:54;5.43;;;3.00;;
76850;SDS011;65824;43.726;20.692;2023-02-04T13:00:20;6.18;;;3.00;;
76850;SDS011;65824;43.726;20.692;2023-02-04T13:02:47;6.93;;;3.42;;
76850;SDS011;65824;43.726;20.692;2023-02-04T13:05:14;6.50;;;3.30;;
76850;SDS011;65824;43.726;20.692;2023-02-04T13:07:40;7.28;;;3.50;;
76850;SDS011;65824;43.726;20.692;2023-02-04T13:10:06;5.72;;;3.35;;
76850;SDS011;65824;43.726;20.692;2023-02-04T13:12:36;7.68;;;4.13;;
76850;SDS011;65824;43.726;20.692;2023-02-04T13:15:02;8.25;;;4.72;;
76850;SDS011;65824;43.726;20.692;2023-02-04T13:17:29;8.60;;;4.40;;
76850;SDS011;65824;43.726;20.692;2023-02-04T13:19:55;8.70;;;4.63;;
76850;SDS011;65824;43.726;20.692;2023-02-04T13:22:20;9.85;;;4.30;;
76850;SDS011;65824;43.726;20.692;2023-02-04T13:24:46;8.18;;;4.20;;
76850;SDS011;65824;43.726;20.692;2023-02-04T13:27:12;7.50;;;3.88;;
76850;SDS011;65824;43.726;20.692;2023-02-04T13:29:39;7.70;;;4.13;;
76850;SDS011;65824;43.726;20.692;2023-02-04T13:32:04;9.15;;;4.13;;
76850;SDS011;65824;43.726;20.692;2023-02-04T13:34:31;10.00;;;4.60;;
76850;SDS011;65824;43.726;20.692;2023-02-04T13:36:57;8.25;;;4.50;;
76850;SDS011;65824;43.726;20.692;2023-02-04T13:39:25;8.15;;;4.18;;
76850;SDS011;65824;43.726;20.692;2023-02-04T13:41:51;7.80;;;4.32;;
76850;SDS011;65824;43.726;20.692;2023-02-04T13:44:21;8.57;;;4.28;;
76850;SDS011;65824;43.726;20.692;2023-02-04T13:46:47;7.32;;;4.30;;
76850;SDS011;65824;43.726;20.692;2023-02-04T13:49:13;7.78;;;4.75;;
76850;SDS011;65824;43.726;20.692;2023-02-04T13:51:38;7.13;;;4.03;;
76850;SDS011;65824;43.726;20.692;2023-02-04T13:54:03;8.18;;;4.80;;
76850;SDS011;65824;43.726;20.692;2023-02-04T13:56:29;7.57;;;4.15;;
76850;SDS011;65824;43.726;20.692;2023-02-04T13:58:58;7.43;;;4.00;;
76850;SDS011;65824;43.726;20.692;2023-02-04T14:01:23;9.57;;;4.50;;
76850;SDS011;65824;43.726;20.692;2023-02-04T14:03:49;8.50;;;4.00;;
76850;SDS011;65824;43.726;20.692;2023-02-04T14:06:15;7.72;;;4.30;;
76850;SDS011;65824;43.726;20.692;2023-02-04T14:08:44;8.15;;;4.80;;
76850;SDS011;65824;43.726;20.692;2023-02-04T14:11:11;8.82;;;4.70;;
76850;SDS011;65824;43.726;20.692;2023-02-04T14:13:37;8.27;;;4.68;;
76850;SDS011;65824;43.726;20.692;2023-02-04T14:16:03;11.43;;;5.35;;
76850;SDS011;65824;43.726;20.692;2023-02-04T14:18:29;8.70;;;4.65;;
76850;SDS011;65824;43.726;20.692;2023-02-04T14:20:55;9.68;;;4.72;;
76850;SDS011;65824;43.726;20.692;2023-02-04T14:23:21;8.45;;;4.70;;
76850;SDS011;65824;43.726;20.692;2023-02-04T14:25:48;8.15;;;4.40;;
76850;SDS011;65824;43.726;20.692;2023-02-04T14:28:13;8.43;;;4.22;;
76850;SDS011;65824;43.726;20.692;2023-02-04T14:30:39;9.20;;;4.70;;
76850;SDS011;65824;43.726;20.692;2023-02-04T14:33:05;9.77;;;5.05;;
76850;SDS011;65824;43.726;20.692;2023-02-04T14:35:33;9.55;;;4.50;;
76850;SDS011;65824;43.726;20.692;2023-02-04T14:38:01;6.85;;;4.13;;
76850;SDS011;65824;43.726;20.692;2023-02-04T14:40:32;8.07;;;4.47;;
76850;SDS011;65824;43.726;20.692;2023-02-04T14:42:57;8.00;;;4.95;;
76850;SDS011;65824;43.726;20.692;2023-02-04T14:45:23;8.15;;;4.35;;
76850;SDS011;65824;43.726;20.692;2023-02-04T14:47:50;7.97;;;4.10;;
76850;SDS011;65824;43.726;20.692;2023-02-04T14:50:16;8.57;;;4.35;;
76850;SDS011;65824;43.726;20.692;2023-02-04T14:52:42;7.50;;;3.47;;
76850;SDS011;65824;43.726;20.692;2023-02-04T14:55:09;8.88;;;4.00;;
76850;SDS011;65824;43.726;20.692;2023-02-04T14:57:36;6.78;;;3.67;;
76850;SDS011;65824;43.726;20.692;2023-02-04T15:00:03;6.38;;;3.55;;
76850;SDS011;65824;43.726;20.692;2023-02-04T15:02:31;8.45;;;3.78;;